Terminal Aerodrome Forecast
Issued by NWS

Home | Current Version | Previous Version | Text Only | Print | Product List | Glossary On
Versions: 1 2 3 4 5 6 7 8 9 10 11 12 13 14
094
FTUS45 KMSO 252320
TAFSMN
TAF
KSMN 252320Z 2600/2624 20007KT P6SM VCTS BKN100CB
      TEMPO 2600/2602 VRB10G30KT 6SM -TSRA BKN100CB
     FM260400 VRB04KT P6SM BKN100
      AMD NOT SKED=

USA.gov is the U.S. government's official web portal to all federal, state and local government web resources and services.